createdAt,value
2018-09-05T00:03:39.910Z,18.60
2018-09-05T00:07:43.588Z,18.50
2018-09-05T00:11:47.263Z,18.50
2018-09-05T00:15:50.924Z,18.40
2018-09-05T00:19:54.571Z,18.40
2018-09-05T00:23:58.306Z,18.30
2018-09-05T00:28:01.988Z,18.20
2018-09-05T00:32:05.791Z,18.20
2018-09-05T00:36:09.452Z,18.10
2018-09-05T00:40:13.108Z,18.10
2018-09-05T00:44:16.752Z,18.00
2018-09-05T00:48:20.365Z,18.00
2018-09-05T00:52:24.035Z,17.90
2018-09-05T00:56:27.687Z,17.80
2018-09-05T01:00:31.422Z,17.80
2018-09-05T01:04:35.101Z,17.80
2018-09-05T01:08:38.784Z,17.80
2018-09-05T01:12:42.541Z,17.70
2018-09-05T01:16:46.212Z,17.70
2018-09-05T01:20:49.940Z,17.60
2018-09-05T01:24:53.568Z,17.60
2018-09-05T01:28:57.239Z,17.50
2018-09-05T01:33:00.865Z,17.50
2018-09-05T01:37:04.732Z,17.40
2018-09-05T01:41:08.414Z,17.40
2018-09-05T01:45:12.108Z,17.30
2018-09-05T01:49:15.741Z,17.30
2018-09-05T01:53:19.333Z,17.20
2018-09-05T01:57:22.972Z,17.20
2018-09-05T02:01:26.644Z,17.10
2018-09-05T02:05:30.541Z,17.10
2018-09-05T02:09:34.202Z,17.00
2018-09-05T02:13:37.818Z,16.90
2018-09-05T02:17:41.466Z,16.90
2018-09-05T02:21:45.120Z,16.90
2018-09-05T02:25:48.777Z,16.80
2018-09-05T02:29:52.505Z,16.80
2018-09-05T02:33:56.132Z,16.70
2018-09-05T02:37:59.769Z,16.70
2018-09-05T02:42:03.423Z,16.70
2018-09-05T02:46:06.824Z,16.60
2018-09-05T02:50:10.502Z,16.60
2018-09-05T02:54:14.109Z,16.50
2018-09-05T02:58:17.849Z,16.50
2018-09-05T03:02:21.506Z,16.50
2018-09-05T03:06:25.181Z,16.40
2018-09-05T03:10:28.829Z,16.40
2018-09-05T03:14:32.454Z,16.40
2018-09-05T03:18:36.159Z,16.30
2018-09-05T03:22:39.924Z,16.30
2018-09-05T03:26:43.568Z,16.30
2018-09-05T03:30:47.259Z,16.20
2018-09-05T03:34:50.865Z,16.20
2018-09-05T03:38:54.504Z,16.10
2018-09-05T03:42:58.148Z,16.10
2018-09-05T03:47:01.838Z,16.10
2018-09-05T03:51:05.521Z,16.00
2018-09-05T03:55:09.158Z,16.00
2018-09-05T03:59:13.508Z,15.90
2018-09-05T04:03:17.160Z,15.90
2018-09-05T04:07:20.801Z,15.80
2018-09-05T04:11:24.906Z,15.80
2018-09-05T04:15:28.543Z,15.70
2018-09-05T04:19:32.168Z,15.70
2018-09-05T04:23:40.013Z,15.70
2018-09-05T04:27:43.777Z,15.60
2018-09-05T04:31:47.432Z,15.60
2018-09-05T04:35:51.069Z,15.60
2018-09-05T04:39:54.721Z,15.50
2018-09-05T04:43:58.401Z,15.50
2018-09-05T04:48:02.041Z,15.50
2018-09-05T04:52:05.939Z,15.50
2018-09-05T04:56:09.609Z,15.40
2018-09-05T05:00:13.241Z,15.40
2018-09-05T05:04:16.913Z,15.40
2018-09-05T05:08:20.649Z,15.40
2018-09-05T05:12:24.363Z,15.40
2018-09-05T05:16:28.059Z,15.40
2018-09-05T05:20:38.076Z,15.30
2018-09-05T05:24:41.777Z,15.30
2018-09-05T05:28:45.516Z,15.40
2018-09-05T05:32:49.242Z,15.30
2018-09-05T05:36:52.888Z,15.30
2018-09-05T05:40:56.514Z,15.40
2018-09-05T05:45:00.206Z,15.40
2018-09-05T05:49:03.964Z,15.40
2018-09-05T05:53:07.595Z,15.40
2018-09-05T05:57:11.256Z,15.40
2018-09-05T06:01:14.893Z,15.50
2018-09-05T06:05:18.592Z,15.50
2018-09-05T06:09:22.286Z,15.50
2018-09-05T06:13:25.939Z,15.60
2018-09-05T06:17:30.015Z,15.60
2018-09-05T06:22:07.658Z,15.70
2018-09-05T06:26:11.311Z,15.80
2018-09-05T06:30:15.173Z,15.80
2018-09-05T06:34:18.951Z,16.00
2018-09-05T06:38:22.584Z,16.00
2018-09-05T06:42:26.249Z,16.10
2018-09-05T06:46:29.859Z,16.20
2018-09-05T06:50:33.579Z,16.30
2018-09-05T06:54:37.244Z,16.30
2018-09-05T06:58:40.943Z,16.50
2018-09-05T07:02:44.720Z,16.60
2018-09-05T07:06:48.446Z,16.70
2018-09-05T07:10:52.130Z,16.80
2018-09-05T07:14:55.812Z,16.90
2018-09-05T07:18:59.668Z,17.00
2018-09-05T07:23:03.360Z,17.10
2018-09-05T07:27:07.048Z,17.20
2018-09-05T07:31:10.735Z,17.40
2018-09-05T07:35:14.448Z,17.60
2018-09-05T07:39:18.134Z,18.50
2018-09-05T07:43:21.781Z,19.90
2018-09-05T07:47:25.470Z,21.40
2018-09-05T07:51:29.146Z,22.90
2018-09-05T07:55:32.839Z,24.30
2018-09-05T07:59:36.637Z,25.50
2018-09-05T08:03:41.455Z,26.90
2018-09-05T08:07:45.188Z,27.20
2018-09-05T08:11:50.204Z,28.10
2018-09-05T08:15:55.155Z,28.10
2018-09-05T08:19:59.806Z,28.40
2018-09-05T08:24:03.527Z,28.80
2018-09-05T08:28:07.223Z,29.20
2018-09-05T08:32:10.875Z,29.10
2018-09-05T08:36:14.740Z,28.50
2018-09-05T08:40:18.299Z,27.50
2018-09-05T08:44:22.089Z,26.70
2018-09-05T08:48:25.800Z,25.80
2018-09-05T08:52:29.560Z,25.20
2018-09-05T08:56:33.267Z,24.70
2018-09-05T09:00:36.975Z,24.20
2018-09-05T09:04:40.724Z,23.90
2018-09-05T09:08:44.372Z,23.60
2018-09-05T09:12:48.101Z,23.40
2018-09-05T09:16:51.843Z,23.30
2018-09-05T09:20:55.514Z,23.10
2018-09-05T09:24:59.189Z,23.00
2018-09-05T09:29:02.851Z,22.90
2018-09-05T09:33:06.567Z,22.90
2018-09-05T09:37:10.270Z,22.80
2018-09-05T09:41:13.943Z,22.70
2018-09-05T09:45:17.643Z,22.70
2018-09-05T09:49:21.372Z,22.60
2018-09-05T09:53:25.053Z,22.60
2018-09-05T09:57:28.710Z,22.60
2018-09-05T10:01:37.595Z,22.60
2018-09-05T10:05:46.659Z,22.60
2018-09-05T10:09:55.115Z,22.60
2018-09-05T10:14:03.824Z,22.60
2018-09-05T10:18:12.841Z,22.60
2018-09-05T10:22:16.508Z,22.60
2018-09-05T10:26:20.155Z,22.60
2018-09-05T10:30:23.917Z,22.60
2018-09-05T10:34:27.553Z,22.60
2018-09-05T10:38:31.256Z,22.70
2018-09-05T10:42:34.915Z,22.70
2018-09-05T10:46:38.930Z,22.70
2018-09-05T10:50:42.663Z,22.70
2018-09-05T10:54:46.332Z,22.70
2018-09-05T10:58:50.038Z,22.80
2018-09-05T11:02:53.701Z,22.80
2018-09-05T11:06:57.992Z,22.80
2018-09-05T11:11:01.648Z,22.80
2018-09-05T11:15:05.328Z,22.90
2018-09-05T11:19:09.559Z,23.00
2018-09-05T11:23:13.646Z,23.00
2018-09-05T11:27:17.360Z,23.00
2018-09-05T11:31:21.013Z,23.00
2018-09-05T11:35:24.639Z,23.10
2018-09-05T11:39:28.291Z,23.20
2018-09-05T11:43:32.016Z,23.20
2018-09-05T11:47:35.723Z,23.30
2018-09-05T11:51:39.760Z,23.30
2018-09-05T11:55:43.419Z,23.40
2018-09-05T11:59:47.062Z,23.50
2018-09-05T12:03:50.739Z,23.50
2018-09-05T12:07:54.523Z,23.60
2018-09-05T12:11:58.200Z,23.70
2018-09-05T12:16:01.868Z,23.80
2018-09-05T12:20:05.553Z,23.90
2018-09-05T12:24:09.220Z,24.10
2018-09-05T12:28:12.927Z,24.20
2018-09-05T12:32:16.566Z,24.40
2018-09-05T12:36:20.268Z,24.50
2018-09-05T12:40:24.040Z,24.60
2018-09-05T12:44:27.713Z,24.80
2018-09-05T12:48:31.364Z,25.00
2018-09-05T12:52:35.024Z,25.10
2018-09-05T12:56:38.680Z,25.30
2018-09-05T13:00:42.420Z,25.40
2018-09-05T13:04:46.149Z,25.60
2018-09-05T13:08:49.836Z,25.70
2018-09-05T13:12:53.484Z,25.80
2018-09-05T13:16:57.244Z,26.00
2018-09-05T13:21:00.919Z,26.20
2018-09-05T13:25:04.597Z,26.20
2018-09-05T13:29:08.365Z,26.30
2018-09-05T13:33:12.132Z,26.40
2018-09-05T13:37:15.747Z,26.50
2018-09-05T13:41:19.523Z,26.50
2018-09-05T13:45:23.214Z,26.70
2018-09-05T13:49:26.878Z,26.80
2018-09-05T13:53:30.917Z,26.80
2018-09-05T13:57:34.589Z,26.90
2018-09-05T14:01:38.249Z,27.00
2018-09-05T14:05:41.937Z,27.10
2018-09-05T14:09:45.728Z,27.10
2018-09-05T14:13:49.375Z,27.10
2018-09-05T14:17:53.055Z,27.20
2018-09-05T14:21:56.732Z,27.40
2018-09-05T14:26:00.487Z,27.40
2018-09-05T14:30:04.328Z,27.50
2018-09-05T14:34:08.116Z,27.60
2018-09-05T14:38:12.110Z,27.70
2018-09-05T14:42:15.795Z,27.70
2018-09-05T14:46:19.611Z,27.60
2018-09-05T14:50:23.369Z,27.70
2018-09-05T14:54:27.072Z,27.80
2018-09-05T14:58:30.748Z,27.90
2018-09-05T15:02:34.376Z,27.90
2018-09-05T15:06:38.069Z,28.00
2018-09-05T15:10:41.788Z,28.00
2018-09-05T15:14:45.426Z,28.10
2018-09-05T15:18:49.132Z,28.10
2018-09-05T15:22:52.760Z,28.10
2018-09-05T15:26:56.447Z,28.00
2018-09-05T15:31:00.146Z,28.00
2018-09-05T15:35:03.934Z,27.90
2018-09-05T15:39:09.204Z,27.80
2018-09-05T15:43:12.840Z,27.80
2018-09-05T15:47:16.545Z,27.70
2018-09-05T15:51:20.187Z,27.60
2018-09-05T15:55:25.034Z,27.50
2018-09-05T15:59:28.756Z,27.50
2018-09-05T16:03:32.473Z,27.40
2018-09-05T16:07:36.213Z,27.30
2018-09-05T16:11:40.275Z,27.30
2018-09-05T16:15:44.043Z,27.20
2018-09-05T16:19:47.625Z,27.10
2018-09-05T16:23:51.313Z,27.10
2018-09-05T16:27:54.996Z,27.00
2018-09-05T16:31:58.648Z,27.00
2018-09-05T16:36:02.331Z,26.90
2018-09-05T16:40:06.176Z,26.80
2018-09-05T16:44:10.709Z,26.80
2018-09-05T16:48:14.408Z,26.60
2018-09-05T16:52:18.131Z,26.50
2018-09-05T16:56:21.865Z,26.40
2018-09-05T17:00:25.620Z,26.30
2018-09-05T17:04:29.301Z,26.20
2018-09-05T17:08:32.970Z,26.20
2018-09-05T17:12:36.618Z,26.10
2018-09-05T17:16:40.422Z,26.00
2018-09-05T17:20:44.172Z,25.90
2018-09-05T17:24:47.889Z,25.80
2018-09-05T17:28:51.644Z,25.70
2018-09-05T17:32:55.263Z,25.60
2018-09-05T17:36:58.969Z,25.40
2018-09-05T17:41:02.612Z,25.30
2018-09-05T17:45:06.640Z,25.20
2018-09-05T17:49:10.544Z,25.00
2018-09-05T17:53:14.201Z,24.90
2018-09-05T17:57:17.947Z,24.80
2018-09-05T18:01:23.220Z,24.60
2018-09-05T18:05:26.912Z,24.50
2018-09-05T18:09:30.620Z,24.30
2018-09-05T18:13:34.359Z,24.20
2018-09-05T18:17:38.147Z,24.00
2018-09-05T18:21:41.807Z,23.80
2018-09-05T18:25:45.445Z,23.60
2018-09-05T18:29:49.130Z,23.50
2018-09-05T18:33:52.882Z,23.30
2018-09-05T18:37:56.496Z,23.20
2018-09-05T18:42:00.161Z,23.10
2018-09-05T18:46:03.883Z,22.90
2018-09-05T18:50:07.564Z,22.80
2018-09-05T18:54:11.228Z,22.70
2018-09-05T18:58:14.862Z,22.50
2018-09-05T19:02:18.584Z,22.40
2018-09-05T19:06:22.225Z,22.20
2018-09-05T19:10:25.841Z,22.00
2018-09-05T19:14:29.481Z,21.90
2018-09-05T19:18:33.225Z,21.80
2018-09-05T19:22:36.863Z,21.70
2018-09-05T19:26:40.503Z,21.60
2018-09-05T19:30:44.135Z,21.40
2018-09-05T19:34:47.851Z,21.30
2018-09-05T19:38:51.520Z,21.20
2018-09-05T19:42:55.194Z,21.10
2018-09-05T19:46:58.846Z,21.00
2018-09-05T19:51:02.486Z,20.90
2018-09-05T19:55:06.185Z,20.80
2018-09-05T19:59:09.828Z,20.70
2018-09-05T20:03:13.496Z,20.60
2018-09-05T20:07:17.152Z,20.50
2018-09-05T20:11:20.880Z,20.50
2018-09-05T20:15:24.624Z,20.40
2018-09-05T20:19:28.236Z,20.30
2018-09-05T20:23:31.899Z,20.20
2018-09-05T20:27:35.596Z,20.10
2018-09-05T20:31:39.255Z,20.00
2018-09-05T20:35:42.903Z,19.90
2018-09-05T20:39:46.639Z,19.80
2018-09-05T20:43:50.269Z,19.70
2018-09-05T20:47:53.927Z,19.60
2018-09-05T20:51:57.608Z,19.50
2018-09-05T20:56:01.261Z,19.40
2018-09-05T21:00:05.468Z,19.30
2018-09-05T21:04:09.119Z,19.30
2018-09-05T21:08:12.828Z,19.20
2018-09-05T21:12:16.460Z,19.10
2018-09-05T21:16:20.125Z,19.00
2018-09-05T21:20:23.958Z,18.90
2018-09-05T21:24:27.567Z,18.80
2018-09-05T21:28:31.242Z,18.80
2018-09-05T21:32:34.876Z,18.70
2018-09-05T21:36:38.540Z,18.70
2018-09-05T21:40:42.189Z,18.60
2018-09-05T21:44:45.787Z,18.50
2018-09-05T21:48:49.431Z,18.40
2018-09-05T21:52:53.195Z,18.40
2018-09-05T21:56:56.783Z,18.30
2018-09-05T22:01:00.403Z,18.30
2018-09-05T22:05:04.118Z,18.20
2018-09-05T22:09:09.174Z,18.20
2018-09-05T22:13:12.854Z,18.10
2018-09-05T22:17:16.526Z,18.10
2018-09-05T22:21:20.290Z,18.00
2018-09-05T22:25:23.899Z,18.00
2018-09-05T22:29:27.618Z,17.90
2018-09-05T22:33:31.304Z,17.90
2018-09-05T22:37:34.942Z,17.80
2018-09-05T22:41:38.601Z,17.80
2018-09-05T22:45:53.635Z,17.70
2018-09-05T22:50:31.060Z,17.70
2018-09-05T22:56:05.670Z,17.60
2018-09-05T23:00:27.497Z,17.50
2018-09-05T23:05:15.224Z,17.40
2018-09-05T23:09:28.964Z,17.40
2018-09-05T23:13:43.955Z,17.40
2018-09-05T23:20:05.532Z,17.30
2018-09-05T23:24:10.869Z,17.30
2018-09-05T23:28:14.549Z,17.20
2018-09-05T23:32:18.284Z,17.10
2018-09-05T23:36:22.271Z,17.10
2018-09-05T23:40:25.940Z,17.10
2018-09-05T23:44:29.601Z,17.00
2018-09-05T23:48:33.256Z,17.00
2018-09-05T23:52:36.920Z,17.00
2018-09-05T23:56:40.608Z,16.90
